sensor_id;sensor_type;location;lat;lon;timestamp;P1;durP1;ratioP1;P2;durP2;ratioP2
29218;SDS011;16421;50.202;7.852;2023-10-19T00:04:31;3.03;;;2.50;;
29218;SDS011;16421;50.202;7.852;2023-10-19T00:09:36;3.60;;;2.92;;
29218;SDS011;16421;50.202;7.852;2023-10-19T00:14:42;4.00;;;3.22;;
29218;SDS011;16421;50.202;7.852;2023-10-19T00:19:45;5.93;;;4.28;;
29218;SDS011;16421;50.202;7.852;2023-10-19T00:24:59;3.42;;;2.90;;
29218;SDS011;16421;50.202;7.852;2023-10-19T00:30:06;4.97;;;4.10;;
29218;SDS011;16421;50.202;7.852;2023-10-19T00:35:12;5.38;;;3.90;;
29218;SDS011;16421;50.202;7.852;2023-10-19T00:40:28;4.05;;;3.60;;
29218;SDS011;16421;50.202;7.852;2023-10-19T00:45:39;4.30;;;3.17;;
29218;SDS011;16421;50.202;7.852;2023-10-19T00:50:43;4.88;;;3.60;;
29218;SDS011;16421;50.202;7.852;2023-10-19T00:55:49;5.15;;;3.67;;
29218;SDS011;16421;50.202;7.852;2023-10-19T01:00:55;4.97;;;3.90;;
29218;SDS011;16421;50.202;7.852;2023-10-19T01:06:01;4.00;;;3.60;;
29218;SDS011;16421;50.202;7.852;2023-10-19T01:11:11;4.68;;;3.25;;
29218;SDS011;16421;50.202;7.852;2023-10-19T01:16:18;3.15;;;2.58;;
29218;SDS011;16421;50.202;7.852;2023-10-19T01:21:24;3.53;;;2.72;;
29218;SDS011;16421;50.202;7.852;2023-10-19T01:26:39;2.63;;;2.40;;
29218;SDS011;16421;50.202;7.852;2023-10-19T01:31:43;4.30;;;3.85;;
29218;SDS011;16421;50.202;7.852;2023-10-19T01:36:57;6.53;;;4.13;;
29218;SDS011;16421;50.202;7.852;2023-10-19T01:42:05;5.28;;;4.40;;
29218;SDS011;16421;50.202;7.852;2023-10-19T01:47:10;6.43;;;4.55;;
29218;SDS011;16421;50.202;7.852;2023-10-19T01:52:13;5.47;;;4.03;;
29218;SDS011;16421;50.202;7.852;2023-10-19T01:57:18;4.65;;;3.42;;
29218;SDS011;16421;50.202;7.852;2023-10-19T02:02:21;4.28;;;3.30;;
29218;SDS011;16421;50.202;7.852;2023-10-19T02:07:25;4.50;;;3.17;;
29218;SDS011;16421;50.202;7.852;2023-10-19T02:12:31;5.18;;;3.63;;
29218;SDS011;16421;50.202;7.852;2023-10-19T02:22:41;4.43;;;2.97;;
29218;SDS011;16421;50.202;7.852;2023-10-19T02:27:46;4.28;;;2.58;;
29218;SDS011;16421;50.202;7.852;2023-10-19T02:32:49;4.95;;;3.63;;
29218;SDS011;16421;50.202;7.852;2023-10-19T02:37:54;5.40;;;3.58;;
29218;SDS011;16421;50.202;7.852;2023-10-19T02:43:01;4.70;;;3.55;;
29218;SDS011;16421;50.202;7.852;2023-10-19T02:48:05;6.00;;;3.40;;
29218;SDS011;16421;50.202;7.852;2023-10-19T02:53:13;3.75;;;2.65;;
29218;SDS011;16421;50.202;7.852;2023-10-19T02:58:18;3.47;;;2.63;;
29218;SDS011;16421;50.202;7.852;2023-10-19T03:03:21;6.45;;;4.20;;
29218;SDS011;16421;50.202;7.852;2023-10-19T03:08:27;5.97;;;4.07;;
29218;SDS011;16421;50.202;7.852;2023-10-19T03:13:32;4.13;;;3.13;;
29218;SDS011;16421;50.202;7.852;2023-10-19T03:18:35;5.65;;;4.05;;
29218;SDS011;16421;50.202;7.852;2023-10-19T03:23:40;6.88;;;4.57;;
29218;SDS011;16421;50.202;7.852;2023-10-19T03:28:45;5.45;;;4.05;;
29218;SDS011;16421;50.202;7.852;2023-10-19T03:33:49;5.03;;;3.90;;
29218;SDS011;16421;50.202;7.852;2023-10-19T03:44:03;8.60;;;5.60;;
29218;SDS011;16421;50.202;7.852;2023-10-19T03:49:08;10.00;;;5.85;;
29218;SDS011;16421;50.202;7.852;2023-10-19T03:54:13;9.32;;;5.95;;
29218;SDS011;16421;50.202;7.852;2023-10-19T03:59:25;7.97;;;4.72;;
29218;SDS011;16421;50.202;7.852;2023-10-19T04:04:32;6.18;;;4.63;;
29218;SDS011;16421;50.202;7.852;2023-10-19T04:09:36;4.65;;;3.45;;
29218;SDS011;16421;50.202;7.852;2023-10-19T04:14:59;6.32;;;4.30;;
29218;SDS011;16421;50.202;7.852;2023-10-19T04:20:12;4.93;;;3.75;;
29218;SDS011;16421;50.202;7.852;2023-10-19T04:25:29;4.40;;;3.40;;
29218;SDS011;16421;50.202;7.852;2023-10-19T04:30:34;5.50;;;3.85;;
29218;SDS011;16421;50.202;7.852;2023-10-19T04:35:39;4.10;;;3.20;;
29218;SDS011;16421;50.202;7.852;2023-10-19T04:40:43;5.28;;;3.45;;
29218;SDS011;16421;50.202;7.852;2023-10-19T04:45:48;4.63;;;3.60;;
29218;SDS011;16421;50.202;7.852;2023-10-19T04:50:52;4.65;;;3.78;;
29218;SDS011;16421;50.202;7.852;2023-10-19T04:55:56;4.88;;;3.70;;
29218;SDS011;16421;50.202;7.852;2023-10-19T05:01:02;5.77;;;4.23;;
29218;SDS011;16421;50.202;7.852;2023-10-19T05:06:06;7.35;;;4.68;;
29218;SDS011;16421;50.202;7.852;2023-10-19T05:11:10;6.70;;;4.72;;
29218;SDS011;16421;50.202;7.852;2023-10-19T05:16:15;6.53;;;3.42;;
29218;SDS011;16421;50.202;7.852;2023-10-19T05:21:19;3.90;;;3.13;;
29218;SDS011;16421;50.202;7.852;2023-10-19T05:26:23;4.53;;;3.88;;
29218;SDS011;16421;50.202;7.852;2023-10-19T05:31:28;7.00;;;3.35;;
29218;SDS011;16421;50.202;7.852;2023-10-19T05:36:32;4.05;;;3.03;;
29218;SDS011;16421;50.202;7.852;2023-10-19T05:41:37;4.43;;;3.03;;
29218;SDS011;16421;50.202;7.852;2023-10-19T05:46:42;4.53;;;3.53;;
29218;SDS011;16421;50.202;7.852;2023-10-19T05:51:48;6.07;;;3.55;;
29218;SDS011;16421;50.202;7.852;2023-10-19T05:56:51;4.50;;;3.10;;
29218;SDS011;16421;50.202;7.852;2023-10-19T06:01:56;5.75;;;3.60;;
29218;SDS011;16421;50.202;7.852;2023-10-19T06:07:00;3.88;;;2.95;;
29218;SDS011;16421;50.202;7.852;2023-10-19T06:12:03;3.65;;;2.78;;
29218;SDS011;16421;50.202;7.852;2023-10-19T06:17:11;4.22;;;2.85;;
29218;SDS011;16421;50.202;7.852;2023-10-19T06:22:20;3.78;;;2.42;;
29218;SDS011;16421;50.202;7.852;2023-10-19T06:27:24;3.03;;;2.40;;
29218;SDS011;16421;50.202;7.852;2023-10-19T06:32:29;3.53;;;2.50;;
29218;SDS011;16421;50.202;7.852;2023-10-19T06:37:32;3.22;;;2.58;;
29218;SDS011;16421;50.202;7.852;2023-10-19T06:42:36;3.83;;;2.75;;
29218;SDS011;16421;50.202;7.852;2023-10-19T06:47:42;4.20;;;3.00;;
29218;SDS011;16421;50.202;7.852;2023-10-19T06:52:47;5.57;;;3.13;;
29218;SDS011;16421;50.202;7.852;2023-10-19T06:57:51;6.65;;;3.80;;
29218;SDS011;16421;50.202;7.852;2023-10-19T07:02:58;5.57;;;3.57;;
29218;SDS011;16421;50.202;7.852;2023-10-19T07:08:03;4.63;;;2.70;;
29218;SDS011;16421;50.202;7.852;2023-10-19T07:13:08;4.07;;;2.60;;
29218;SDS011;16421;50.202;7.852;2023-10-19T07:18:13;6.88;;;3.60;;
29218;SDS011;16421;50.202;7.852;2023-10-19T07:23:17;3.53;;;2.75;;
29218;SDS011;16421;50.202;7.852;2023-10-19T07:28:21;4.82;;;3.10;;
29218;SDS011;16421;50.202;7.852;2023-10-19T07:38:32;4.10;;;2.45;;
29218;SDS011;16421;50.202;7.852;2023-10-19T07:43:36;3.38;;;2.58;;
29218;SDS011;16421;50.202;7.852;2023-10-19T07:48:41;3.20;;;2.38;;
29218;SDS011;16421;50.202;7.852;2023-10-19T07:53:45;3.67;;;2.28;;
29218;SDS011;16421;50.202;7.852;2023-10-19T07:58:48;4.30;;;2.42;;
29218;SDS011;16421;50.202;7.852;2023-10-19T08:03:53;3.00;;;2.60;;
29218;SDS011;16421;50.202;7.852;2023-10-19T08:08:57;4.20;;;2.38;;
29218;SDS011;16421;50.202;7.852;2023-10-19T08:14:00;2.85;;;2.15;;
29218;SDS011;16421;50.202;7.852;2023-10-19T08:19:05;2.58;;;2.20;;
29218;SDS011;16421;50.202;7.852;2023-10-19T08:24:09;3.40;;;2.33;;
29218;SDS011;16421;50.202;7.852;2023-10-19T08:29:15;4.40;;;2.28;;
29218;SDS011;16421;50.202;7.852;2023-10-19T08:34:22;4.40;;;2.55;;
29218;SDS011;16421;50.202;7.852;2023-10-19T08:44:37;3.83;;;2.15;;
29218;SDS011;16421;50.202;7.852;2023-10-19T08:49:41;2.25;;;1.88;;
29218;SDS011;16421;50.202;7.852;2023-10-19T08:54:45;3.13;;;1.80;;
29218;SDS011;16421;50.202;7.852;2023-10-19T08:59:49;3.80;;;2.00;;
29218;SDS011;16421;50.202;7.852;2023-10-19T09:04:55;2.88;;;1.70;;
29218;SDS011;16421;50.202;7.852;2023-10-19T09:10:01;3.97;;;1.98;;
29218;SDS011;16421;50.202;7.852;2023-10-19T09:15:10;4.45;;;1.98;;
29218;SDS011;16421;50.202;7.852;2023-10-19T09:20:26;3.85;;;1.75;;
29218;SDS011;16421;50.202;7.852;2023-10-19T09:25:29;3.63;;;1.85;;
29218;SDS011;16421;50.202;7.852;2023-10-19T09:30:33;4.43;;;1.65;;
29218;SDS011;16421;50.202;7.852;2023-10-19T09:35:38;2.65;;;1.48;;
29218;SDS011;16421;50.202;7.852;2023-10-19T09:40:44;0.77;;;0.70;;
29218;SDS011;16421;50.202;7.852;2023-10-19T09:45:48;2.63;;;1.40;;
29218;SDS011;16421;50.202;7.852;2023-10-19T09:55:59;1.77;;;1.30;;
29218;SDS011;16421;50.202;7.852;2023-10-19T10:01:12;3.22;;;1.10;;
29218;SDS011;16421;50.202;7.852;2023-10-19T10:06:27;3.78;;;1.60;;
29218;SDS011;16421;50.202;7.852;2023-10-19T10:11:31;3.28;;;1.42;;
29218;SDS011;16421;50.202;7.852;2023-10-19T10:16:35;2.40;;;1.20;;
29218;SDS011;16421;50.202;7.852;2023-10-19T10:21:41;3.17;;;1.13;;
29218;SDS011;16421;50.202;7.852;2023-10-19T10:27:15;2.08;;;1.55;;
29218;SDS011;16421;50.202;7.852;2023-10-19T10:37:53;2.25;;;1.48;;
29218;SDS011;16421;50.202;7.852;2023-10-19T10:43:04;3.20;;;2.00;;
29218;SDS011;16421;50.202;7.852;2023-10-19T10:48:11;3.28;;;1.52;;
29218;SDS011;16421;50.202;7.852;2023-10-19T10:53:16;3.55;;;2.15;;
29218;SDS011;16421;50.202;7.852;2023-10-19T10:58:20;2.67;;;1.65;;
29218;SDS011;16421;50.202;7.852;2023-10-19T11:03:23;2.15;;;1.10;;
29218;SDS011;16421;50.202;7.852;2023-10-19T11:08:32;1.88;;;1.10;;
29218;SDS011;16421;50.202;7.852;2023-10-19T11:13:36;2.88;;;1.75;;
29218;SDS011;16421;50.202;7.852;2023-10-19T11:18:40;1.90;;;1.50;;
29218;SDS011;16421;50.202;7.852;2023-10-19T11:23:48;2.47;;;1.60;;
29218;SDS011;16421;50.202;7.852;2023-10-19T11:28:56;3.40;;;2.30;;
29218;SDS011;16421;50.202;7.852;2023-10-19T11:34:00;2.47;;;2.08;;
29218;SDS011;16421;50.202;7.852;2023-10-19T11:39:06;2.88;;;1.90;;
29218;SDS011;16421;50.202;7.852;2023-10-19T11:44:12;2.50;;;1.75;;
29218;SDS011;16421;50.202;7.852;2023-10-19T11:49:16;3.15;;;1.83;;
29218;SDS011;16421;50.202;7.852;2023-10-19T11:54:23;2.10;;;1.58;;
29218;SDS011;16421;50.202;7.852;2023-10-19T11:59:29;3.05;;;2.03;;
29218;SDS011;16421;50.202;7.852;2023-10-19T12:04:32;2.90;;;1.58;;
29218;SDS011;16421;50.202;7.852;2023-10-19T12:09:38;1.77;;;1.10;;
29218;SDS011;16421;50.202;7.852;2023-10-19T12:14:42;3.10;;;1.27;;
29218;SDS011;16421;50.202;7.852;2023-10-19T12:19:45;2.03;;;1.10;;
29218;SDS011;16421;50.202;7.852;2023-10-19T12:24:50;2.05;;;1.60;;
29218;SDS011;16421;50.202;7.852;2023-10-19T12:29:53;2.20;;;1.40;;
29218;SDS011;16421;50.202;7.852;2023-10-19T12:34:57;3.10;;;1.23;;
29218;SDS011;16421;50.202;7.852;2023-10-19T12:40:01;2.17;;;1.17;;
29218;SDS011;16421;50.202;7.852;2023-10-19T12:45:25;3.30;;;1.38;;
29218;SDS011;16421;50.202;7.852;2023-10-19T12:50:28;3.83;;;1.65;;
29218;SDS011;16421;50.202;7.852;2023-10-19T12:55:33;2.70;;;1.40;;
29218;SDS011;16421;50.202;7.852;2023-10-19T13:00:38;2.10;;;1.35;;
29218;SDS011;16421;50.202;7.852;2023-10-19T13:05:46;2.53;;;1.20;;
29218;SDS011;16421;50.202;7.852;2023-10-19T13:10:52;1.35;;;1.10;;
29218;SDS011;16421;50.202;7.852;2023-10-19T13:16:02;2.05;;;1.42;;
29218;SDS011;16421;50.202;7.852;2023-10-19T13:21:07;2.70;;;1.47;;
29218;SDS011;16421;50.202;7.852;2023-10-19T13:26:14;3.10;;;1.58;;
29218;SDS011;16421;50.202;7.852;2023-10-19T13:31:19;4.65;;;1.95;;
29218;SDS011;16421;50.202;7.852;2023-10-19T13:36:23;2.78;;;1.90;;
29218;SDS011;16421;50.202;7.852;2023-10-19T13:41:30;3.15;;;2.13;;
29218;SDS011;16421;50.202;7.852;2023-10-19T13:46:34;3.22;;;2.40;;
29218;SDS011;16421;50.202;7.852;2023-10-19T13:51:38;4.03;;;2.22;;
29218;SDS011;16421;50.202;7.852;2023-10-19T13:56:43;3.15;;;2.58;;
29218;SDS011;16421;50.202;7.852;2023-10-19T14:01:47;4.13;;;2.67;;
29218;SDS011;16421;50.202;7.852;2023-10-19T14:06:51;3.28;;;2.50;;
29218;SDS011;16421;50.202;7.852;2023-10-19T14:12:01;3.45;;;2.40;;
29218;SDS011;16421;50.202;7.852;2023-10-19T14:17:08;3.47;;;2.40;;
29218;SDS011;16421;50.202;7.852;2023-10-19T14:22:19;4.53;;;2.80;;
29218;SDS011;16421;50.202;7.852;2023-10-19T14:32:52;4.72;;;2.30;;
29218;SDS011;16421;50.202;7.852;2023-10-19T14:38:48;3.60;;;2.30;;
29218;SDS011;16421;50.202;7.852;2023-10-19T14:44:02;3.28;;;2.33;;
29218;SDS011;16421;50.202;7.852;2023-10-19T14:49:26;3.25;;;1.95;;
29218;SDS011;16421;50.202;7.852;2023-10-19T14:54:32;2.70;;;1.63;;
29218;SDS011;16421;50.202;7.852;2023-10-19T15:00:19;1.85;;;1.45;;
29218;SDS011;16421;50.202;7.852;2023-10-19T15:05:57;3.05;;;1.50;;
29218;SDS011;16421;50.202;7.852;2023-10-19T15:11:40;1.40;;;1.30;;
29218;SDS011;16421;50.202;7.852;2023-10-19T15:22:16;1.27;;;1.10;;
29218;SDS011;16421;50.202;7.852;2023-10-19T15:27:24;0.93;;;0.82;;
29218;SDS011;16421;50.202;7.852;2023-10-19T15:32:38;2.80;;;1.02;;
29218;SDS011;16421;50.202;7.852;2023-10-19T15:38:03;0.80;;;0.80;;
29218;SDS011;16421;50.202;7.852;2023-10-19T15:43:08;1.80;;;1.10;;
29218;SDS011;16421;50.202;7.852;2023-10-19T15:48:17;1.77;;;1.47;;
29218;SDS011;16421;50.202;7.852;2023-10-19T15:53:23;1.20;;;1.10;;
29218;SDS011;16421;50.202;7.852;2023-10-19T15:58:27;1.80;;;1.05;;
29218;SDS011;16421;50.202;7.852;2023-10-19T16:03:34;1.33;;;0.98;;
29218;SDS011;16421;50.202;7.852;2023-10-19T16:08:38;1.10;;;0.80;;
29218;SDS011;16421;50.202;7.852;2023-10-19T16:13:42;1.52;;;1.10;;
29218;SDS011;16421;50.202;7.852;2023-10-19T16:18:47;1.38;;;1.10;;
29218;SDS011;16421;50.202;7.852;2023-10-19T16:23:50;1.17;;;1.00;;
29218;SDS011;16421;50.202;7.852;2023-10-19T16:28:54;1.13;;;0.95;;
29218;SDS011;16421;50.202;7.852;2023-10-19T16:33:59;1.42;;;0.93;;
29218;SDS011;16421;50.202;7.852;2023-10-19T16:39:06;1.85;;;1.40;;
29218;SDS011;16421;50.202;7.852;2023-10-19T16:44:17;2.20;;;1.48;;
29218;SDS011;16421;50.202;7.852;2023-10-19T16:49:25;3.47;;;1.95;;
29218;SDS011;16421;50.202;7.852;2023-10-19T16:54:31;6.32;;;4.35;;
29218;SDS011;16421;50.202;7.852;2023-10-19T16:59:36;3.47;;;2.20;;
29218;SDS011;16421;50.202;7.852;2023-10-19T17:04:53;2.30;;;1.75;;
29218;SDS011;16421;50.202;7.852;2023-10-19T17:10:16;2.70;;;1.80;;
29218;SDS011;16421;50.202;7.852;2023-10-19T17:15:27;4.10;;;2.58;;
29218;SDS011;16421;50.202;7.852;2023-10-19T17:20:41;6.82;;;3.78;;
29218;SDS011;16421;50.202;7.852;2023-10-19T17:25:48;4.10;;;2.50;;
29218;SDS011;16421;50.202;7.852;2023-10-19T17:30:53;2.03;;;1.80;;
29218;SDS011;16421;50.202;7.852;2023-10-19T17:35:58;3.30;;;2.08;;
29218;SDS011;16421;50.202;7.852;2023-10-19T17:41:05;3.72;;;2.10;;
29218;SDS011;16421;50.202;7.852;2023-10-19T17:46:09;2.25;;;1.70;;
29218;SDS011;16421;50.202;7.852;2023-10-19T17:51:15;2.63;;;1.92;;
29218;SDS011;16421;50.202;7.852;2023-10-19T17:56:19;5.88;;;2.75;;
29218;SDS011;16421;50.202;7.852;2023-10-19T18:01:24;5.00;;;3.00;;
29218;SDS011;16421;50.202;7.852;2023-10-19T18:06:29;5.65;;;3.78;;
29218;SDS011;16421;50.202;7.852;2023-10-19T18:11:32;12.15;;;6.25;;
29218;SDS011;16421;50.202;7.852;2023-10-19T18:16:38;2.78;;;2.47;;
29218;SDS011;16421;50.202;7.852;2023-10-19T18:21:44;2.80;;;1.95;;
29218;SDS011;16421;50.202;7.852;2023-10-19T18:26:48;2.60;;;2.23;;
29218;SDS011;16421;50.202;7.852;2023-10-19T18:31:51;2.35;;;1.85;;
29218;SDS011;16421;50.202;7.852;2023-10-19T18:36:56;3.67;;;2.00;;
29218;SDS011;16421;50.202;7.852;2023-10-19T18:42:00;2.55;;;2.00;;
29218;SDS011;16421;50.202;7.852;2023-10-19T18:47:04;2.50;;;1.58;;
29218;SDS011;16421;50.202;7.852;2023-10-19T18:52:09;2.10;;;1.30;;
29218;SDS011;16421;50.202;7.852;2023-10-19T18:57:16;1.50;;;1.38;;
29218;SDS011;16421;50.202;7.852;2023-10-19T19:02:20;1.70;;;1.60;;
29218;SDS011;16421;50.202;7.852;2023-10-19T19:07:25;4.45;;;1.92;;
29218;SDS011;16421;50.202;7.852;2023-10-19T19:12:29;1.50;;;1.40;;
29218;SDS011;16421;50.202;7.852;2023-10-19T19:17:33;1.70;;;1.27;;
29218;SDS011;16421;50.202;7.852;2023-10-19T19:22:39;2.47;;;1.80;;
29218;SDS011;16421;50.202;7.852;2023-10-19T19:27:43;1.73;;;1.63;;
29218;SDS011;16421;50.202;7.852;2023-10-19T19:32:46;2.53;;;2.03;;
29218;SDS011;16421;50.202;7.852;2023-10-19T19:37:51;2.63;;;2.13;;
29218;SDS011;16421;50.202;7.852;2023-10-19T19:42:56;2.50;;;2.00;;
29218;SDS011;16421;50.202;7.852;2023-10-19T19:48:00;1.52;;;1.42;;
29218;SDS011;16421;50.202;7.852;2023-10-19T19:53:06;2.03;;;1.73;;
29218;SDS011;16421;50.202;7.852;2023-10-19T19:58:10;1.88;;;1.70;;
29218;SDS011;16421;50.202;7.852;2023-10-19T20:03:14;2.92;;;2.35;;
29218;SDS011;16421;50.202;7.852;2023-10-19T20:08:20;3.72;;;2.15;;
29218;SDS011;16421;50.202;7.852;2023-10-19T20:13:23;2.35;;;2.00;;
29218;SDS011;16421;50.202;7.852;2023-10-19T20:18:27;1.42;;;1.33;;
29218;SDS011;16421;50.202;7.852;2023-10-19T20:23:32;1.35;;;1.23;;
29218;SDS011;16421;50.202;7.852;2023-10-19T20:28:36;1.60;;;1.45;;
29218;SDS011;16421;50.202;7.852;2023-10-19T20:33:39;1.33;;;1.23;;
29218;SDS011;16421;50.202;7.852;2023-10-19T20:38:44;1.55;;;1.45;;
29218;SDS011;16421;50.202;7.852;2023-10-19T20:43:49;1.92;;;1.55;;
29218;SDS011;16421;50.202;7.852;2023-10-19T20:48:52;1.83;;;1.63;;
29218;SDS011;16421;50.202;7.852;2023-10-19T20:53:58;2.47;;;1.65;;
29218;SDS011;16421;50.202;7.852;2023-10-19T20:59:03;2.13;;;1.35;;
29218;SDS011;16421;50.202;7.852;2023-10-19T21:04:07;2.17;;;1.98;;
29218;SDS011;16421;50.202;7.852;2023-10-19T21:09:12;3.20;;;2.60;;
29218;SDS011;16421;50.202;7.852;2023-10-19T21:14:17;4.00;;;3.60;;
29218;SDS011;16421;50.202;7.852;2023-10-19T21:19:21;3.30;;;3.00;;
29218;SDS011;16421;50.202;7.852;2023-10-19T21:24:34;5.30;;;4.03;;
29218;SDS011;16421;50.202;7.852;2023-10-19T21:29:37;5.10;;;4.15;;
29218;SDS011;16421;50.202;7.852;2023-10-19T21:34:40;5.20;;;4.28;;
29218;SDS011;16421;50.202;7.852;2023-10-19T21:39:46;4.72;;;3.83;;
29218;SDS011;16421;50.202;7.852;2023-10-19T21:44:49;4.80;;;3.88;;
29218;SDS011;16421;50.202;7.852;2023-10-19T21:49:53;4.93;;;4.05;;
29218;SDS011;16421;50.202;7.852;2023-10-19T21:54:58;3.05;;;2.72;;
29218;SDS011;16421;50.202;7.852;2023-10-19T22:00:02;4.13;;;3.30;;
29218;SDS011;16421;50.202;7.852;2023-10-19T22:05:13;3.05;;;2.53;;
29218;SDS011;16421;50.202;7.852;2023-10-19T22:10:25;2.63;;;2.13;;
29218;SDS011;16421;50.202;7.852;2023-10-19T22:15:29;1.77;;;1.63;;
29218;SDS011;16421;50.202;7.852;2023-10-19T22:20:32;1.90;;;1.67;;
29218;SDS011;16421;50.202;7.852;2023-10-19T22:25:37;1.77;;;1.35;;
29218;SDS011;16421;50.202;7.852;2023-10-19T22:30:41;1.80;;;1.33;;
29218;SDS011;16421;50.202;7.852;2023-10-19T22:35:46;1.10;;;1.00;;
29218;SDS011;16421;50.202;7.852;2023-10-19T22:40:51;0.85;;;0.85;;
29218;SDS011;16421;50.202;7.852;2023-10-19T22:46:02;1.00;;;0.90;;
29218;SDS011;16421;50.202;7.852;2023-10-19T22:51:06;0.90;;;0.90;;
29218;SDS011;16421;50.202;7.852;2023-10-19T22:56:10;0.70;;;0.70;;
29218;SDS011;16421;50.202;7.852;2023-10-19T23:01:14;1.63;;;0.80;;
29218;SDS011;16421;50.202;7.852;2023-10-19T23:06:17;1.00;;;1.00;;
29218;SDS011;16421;50.202;7.852;2023-10-19T23:11:24;0.95;;;0.80;;
29218;SDS011;16421;50.202;7.852;2023-10-19T23:16:30;0.70;;;0.70;;
29218;SDS011;16421;50.202;7.852;2023-10-19T23:21:37;1.40;;;0.90;;
29218;SDS011;16421;50.202;7.852;2023-10-19T23:26:42;0.82;;;0.70;;
29218;SDS011;16421;50.202;7.852;2023-10-19T23:31:48;1.98;;;1.00;;
29218;SDS011;16421;50.202;7.852;2023-10-19T23:36:51;0.68;;;0.68;;
29218;SDS011;16421;50.202;7.852;2023-10-19T23:41:56;0.70;;;0.50;;
29218;SDS011;16421;50.202;7.852;2023-10-19T23:47:01;0.32;;;0.32;;
29218;SDS011;16421;50.202;7.852;2023-10-19T23:52:05;0.65;;;0.52;;
29218;SDS011;16421;50.202;7.852;2023-10-19T23:57:10;0.55;;;0.45;;
